Sunny Williams — WDE4940 — position and weather

sailwx.info

Track history (hours):
 
Tides and Currents Weather Stations Pressure Air Temp Water Temp Dewpoint Dewpoint Depression Visibility Wind Speed Wind Dir Waves Ship Positions

Sunny Williams

Owner: Marine Oil Service of New York, LLC, Elizabeth, NJ. More information available from US FCC via Universal Licensing System.

Last reported at 2018-Feb-20 00:54 UTC. Time now 2018-Feb-20 01:27 UTC.
Position N 40°41' W 074°09'.

Type: Tanker. MMSI: 367359930.

Date/timePositionNaut miles runAvg speedWind from/ knotsBaromVisibWave heightAir tempDewpointWater temp
2018-Feb-20 00:54N 40°41' W 074°09'0 0.0
2018-Feb-20 00:29N 40°41' W 074°09'1 2.5
2018-Feb-19 23:58N 40°40' W 074°08'3 6.7
2018-Feb-19 23:30N 40°38' W 074°12'0 0.0
2018-Feb-17 22:28N 40°38' W 074°12'3 6.0
2018-Feb-17 21:58N 40°40' W 074°08'1 2.5
2018-Feb-17 21:30N 40°41' W 074°09'0 0.0
2018-Feb-17 21:00N 40°41' W 074°09'0 0.0
2018-Feb-17 20:30N 40°41' W 074°09'0 0.1
2018-Feb-17 20:00N 40°41' W 074°09'0 0.1
2018-Feb-17 19:30N 40°41' W 074°09'0 0.0
2018-Feb-17 18:59N 40°41' W 074°09'0 0.0
2018-Feb-17 18:30N 40°41' W 074°09'0 0.0
2018-Feb-17 18:00N 40°41' W 074°09'2 3.7
2018-Feb-17 17:29N 40°39' W 074°09'2 4.8
2018-Feb-17 17:00N 40°38' W 074°12'0 0.1
2018-Feb-17 16:29N 40°38' W 074°12'0 0.0
2018-Feb-15 20:41N 40°38' W 074°12'1 2.9
2018-Feb-15 20:30N 40°39' W 074°11'3 5.6
2018-Feb-15 20:00N 40°41' W 074°09'0 0.0
2018-Feb-15 19:30N 40°41' W 074°09'0 0.0
2018-Feb-15 18:58N 40°41' W 074°09'0 0.1
2018-Feb-15 18:30N 40°41' W 074°09'0 0.1
2018-Feb-15 18:00N 40°41' W 074°09'0 0.2
2018-Feb-15 17:30N 40°41' W 074°09'0 0.1
2018-Feb-15 16:58N 40°41' W 074°09'0 0.2
2018-Feb-15 16:29N 40°41' W 074°09'2 4.3
2018-Feb-15 16:00N 40°39' W 074°09'2 3.4
2018-Feb-15 15:27N 40°38' W 074°11'0 0.0
2018-Feb-15 14:59N 40°38' W 074°11'0 0.0
2018-Feb-15 14:30N 40°38' W 074°11'0 0.0
2018-Feb-15 14:00N 40°38' W 074°11'0 0.0
2018-Feb-15 00:46N 40°38' W 074°12'1 5.1
2018-Feb-15 00:29N 40°39' W 074°10'4 8.5
2018-Feb-15 00:00N 40°39' W 074°05'1 2.0
2018-Feb-14 23:30N 40°38' W 074°04'0 0.3
2018-Feb-14 23:00N 40°38' W 074°04'3 6.7
2018-Feb-14 22:30N 40°39' W 074°08'3 5.1
2018-Feb-14 22:00N 40°38' W 074°12'0 0.0
2018-Feb-14 21:30N 40°38' W 074°12'0 0.0
2018-Feb-14 21:00N 40°38' W 074°12'0 0.0
2018-Feb-14 20:30N 40°38' W 074°12'0 0.0
2018-Feb-14 19:59N 40°38' W 074°12'0 0.0
2018-Feb-14 19:30N 40°38' W 074°12'0 0.0
2018-Feb-14 19:00N 40°38' W 074°12'0 0.0
2018-Feb-14 18:30N 40°38' W 074°12'0 0.0
2018-Feb-14 18:00N 40°38' W 074°12'0 0.0
2018-Feb-14 17:30N 40°38' W 074°12'0 0.0
2018-Feb-14 17:00N 40°38' W 074°12'0 0.0
2018-Feb-14 16:30N 40°38' W 074°12'0 0.0
2018-Feb-14 16:00N 40°38' W 074°12'0 0.9
2018-Feb-14 15:29N 40°39' W 074°11'0 0.0
2018-Feb-14 14:00N 40°39' W 074°11'0 0.0
2018-Feb-13 18:22N 40°38' W 074°12'2 6.2
2018-Feb-13 17:59N 40°39' W 074°09'2 4.3
2018-Feb-13 17:28N 40°41' W 074°08'0 0.0
2018-Feb-13 17:00N 40°41' W 074°08'0 0.0
2018-Feb-13 16:30N 40°41' W 074°08'0 0.0
2018-Feb-13 15:59N 40°41' W 074°08'0 0.0
2018-Feb-13 15:30N 40°41' W 074°08'0 0.0
2018-Feb-13 15:00N 40°41' W 074°08'3 5.5
2018-Feb-13 14:28N 40°39' W 074°10'  
Track history (hours):
 
Tides and Currents Weather Stations Pressure Air Temp Water Temp Dewpoint Dewpoint Depression Visibility Wind Speed Wind Dir Waves Ship Positions

Sunny Williams

Owner: Marine Oil Service of New York, LLC, Elizabeth, NJ. More information available from US FCC via Universal Licensing System.

Last reported at 2018-Feb-20 00:54 UTC. Time now 2018-Feb-20 01:27 UTC.
Position N 40°41' W 074°09'.

Type: Tanker. MMSI: 367359930.

Date/timePositionNaut miles runAvg speedWind from/ knotsBaromVisibWave heightAir tempDewpointWater temp
2018-Feb-20 00:54N 40°41' W 074°09'0 0.0
2018-Feb-20 00:29N 40°41' W 074°09'1 2.5
2018-Feb-19 23:58N 40°40' W 074°08'3 6.7
2018-Feb-19 23:30N 40°38' W 074°12'0 0.0
2018-Feb-17 22:28N 40°38' W 074°12'3 6.0
2018-Feb-17 21:58N 40°40' W 074°08'1 2.5
2018-Feb-17 21:30N 40°41' W 074°09'0 0.0
2018-Feb-17 21:00N 40°41' W 074°09'0 0.0
2018-Feb-17 20:30N 40°41' W 074°09'0 0.1
2018-Feb-17 20:00N 40°41' W 074°09'0 0.1
2018-Feb-17 19:30N 40°41' W 074°09'0 0.0
2018-Feb-17 18:59N 40°41' W 074°09'0 0.0
2018-Feb-17 18:30N 40°41' W 074°09'0 0.0
2018-Feb-17 18:00N 40°41' W 074°09'2 3.7
2018-Feb-17 17:29N 40°39' W 074°09'2 4.8
2018-Feb-17 17:00N 40°38' W 074°12'0 0.1
2018-Feb-17 16:29N 40°38' W 074°12'0 0.0
2018-Feb-15 20:41N 40°38' W 074°12'1 2.9
2018-Feb-15 20:30N 40°39' W 074°11'3 5.6
2018-Feb-15 20:00N 40°41' W 074°09'0 0.0
2018-Feb-15 19:30N 40°41' W 074°09'0 0.0
2018-Feb-15 18:58N 40°41' W 074°09'0 0.1
2018-Feb-15 18:30N 40°41' W 074°09'0 0.1
2018-Feb-15 18:00N 40°41' W 074°09'0 0.2
2018-Feb-15 17:30N 40°41' W 074°09'0 0.1
2018-Feb-15 16:58N 40°41' W 074°09'0 0.2
2018-Feb-15 16:29N 40°41' W 074°09'2 4.3
2018-Feb-15 16:00N 40°39' W 074°09'2 3.4
2018-Feb-15 15:27N 40°38' W 074°11'0 0.0
2018-Feb-15 14:59N 40°38' W 074°11'0 0.0
2018-Feb-15 14:30N 40°38' W 074°11'0 0.0
2018-Feb-15 14:00N 40°38' W 074°11'0 0.0
2018-Feb-15 00:46N 40°38' W 074°12'1 5.1
2018-Feb-15 00:29N 40°39' W 074°10'4 8.5
2018-Feb-15 00:00N 40°39' W 074°05'1 2.0
2018-Feb-14 23:30N 40°38' W 074°04'0 0.3
2018-Feb-14 23:00N 40°38' W 074°04'3 6.7
2018-Feb-14 22:30N 40°39' W 074°08'3 5.1
2018-Feb-14 22:00N 40°38' W 074°12'0 0.0
2018-Feb-14 21:30N 40°38' W 074°12'0 0.0
2018-Feb-14 21:00N 40°38' W 074°12'0 0.0
2018-Feb-14 20:30N 40°38' W 074°12'0 0.0
2018-Feb-14 19:59N 40°38' W 074°12'0 0.0
2018-Feb-14 19:30N 40°38' W 074°12'0 0.0
2018-Feb-14 19:00N 40°38' W 074°12'0 0.0
2018-Feb-14 18:30N 40°38' W 074°12'0 0.0
2018-Feb-14 18:00N 40°38' W 074°12'0 0.0
2018-Feb-14 17:30N 40°38' W 074°12'0 0.0
2018-Feb-14 17:00N 40°38' W 074°12'0 0.0
2018-Feb-14 16:30N 40°38' W 074°12'0 0.0
2018-Feb-14 16:00N 40°38' W 074°12'0 0.9
2018-Feb-14 15:29N 40°39' W 074°11'0 0.0
2018-Feb-14 14:00N 40°39' W 074°11'0 0.0
2018-Feb-13 18:22N 40°38' W 074°12'2 6.2
2018-Feb-13 17:59N 40°39' W 074°09'2 4.3
2018-Feb-13 17:28N 40°41' W 074°08'0 0.0
2018-Feb-13 17:00N 40°41' W 074°08'0 0.0
2018-Feb-13 16:30N 40°41' W 074°08'0 0.0
2018-Feb-13 15:59N 40°41' W 074°08'0 0.0
2018-Feb-13 15:30N 40°41' W 074°08'0 0.0
2018-Feb-13 15:00N 40°41' W 074°08'3 5.5
2018-Feb-13 14:28N 40°39' W 074°10'  

Dump ship's entire track history